Skip Navigation LinksHome page > Weather > Current weather Skip Navigation Links

Current Weather

New Tokyo International (Narita), Tokyo

For information only: do not use for flight planning or navigation.
Latest weather
Observation time Saturday, April 18, 2015 8:00 PM JST
Local time Saturday, April 18, 2015 8:37 PM JST
Flight conditions Visual Meteorological Conditions
Winds
Wind direction South (190°)
Wind speed 7 mph
Visibility 6.2 mi.
Sky condition
Ceiling unlimited
Sky clear
Temperature 57°F
Dewpoint 46°F
Altimeter 29.97 in.Hg
Derived measurements
Relative humidity 67%
Density altitude 121 ft.
Remarks
Ceiling and visibility OK.
No significant changes expected in the next two hours.
METAR RJAA 181100Z 19006KT CAVOK 14/08 Q1015 NOSIG RMK A3000

Settings

Location code

InnerDrive.Weather 4.0.5567.0 Release CLR 4.0.30319.34014
Copyright ©2015 Inner Drive Technology. All rights reserved. Portions Copyright ©1986-2015 David Braverman.

Find weather

Site navigation


Skip Navigation Links

Place info

Page info

PayPal - The safer, easier way to pay online!

Return home.

Copyright ©2015 Inner Drive Technology. Purveyors of fine, hand-crafted computer software. Page printed 2015-04-18T11:37:01 UTC.